Time;durP1;ratioP1;P1;durP2;ratioP2;P2;SDS_P1;SDS_P2;PMS_P1;PMS_P2;Temp;Humidity;BMP_temperature;BMP_pressure;BME280_temperature;BME280_humidity;BME280_pressure;Samples;Min_cycle;Max_cycle;Signal;HPM_P1;HPM_P2
2023/11/29 00:01:37;;;;;;;9.38;2.50;;;;;;;14.89;46.18;98929.17;1719063;82;21839;-81
2023/11/29 00:04:42;;;;;;;13.15;3.25;;;;;;;14.68;46.39;98919.58;1719824;83;21278;-81
2023/11/29 00:07:49;;;;;;;19.27;3.75;;;;;;;14.67;46.54;98921.17;1718854;82;21290;-81
2023/11/29 00:10:48;;;;;;;14.85;3.58;;;;;;;14.90;46.12;98915.70;1719741;83;21318;-81
2023/11/29 00:13:41;;;;;;;11.78;2.50;;;;;;;14.91;46.03;98928.38;1718109;83;21330;-81
2023/11/29 00:16:28;;;;;;;13.32;3.33;;;;;;;14.87;46.20;98917.58;1718458;82;21266;-79
2023/11/29 00:19:20;;;;;;;16.32;3.55;;;;;;;15.08;45.86;98897.70;1719660;83;21259;-79
2023/11/29 00:22:26;;;;;;;12.23;3.10;;;;;;;15.17;45.94;98909.73;1718934;82;22236;-79
2023/11/29 00:25:32;;;;;;;9.83;3.30;;;;;;;14.97;46.12;98894.41;1718851;83;21314;-81
2023/11/29 00:28:38;;;;;;;10.23;3.02;;;;;;;14.75;46.72;98897.45;1718300;82;21353;-81
2023/11/29 00:31:44;;;;;;;9.40;3.40;;;;;;;15.03;46.11;98889.31;1719238;82;21930;-81
2023/11/29 00:34:50;;;;;;;12.15;3.27;;;;;;;15.25;45.70;98874.41;1695957;83;21275;-80
2023/11/29 00:37:56;;;;;;;13.68;3.10;;;;;;;15.08;46.02;98878.42;1684796;85;21356;-80
2023/11/29 00:41:02;;;;;;;15.43;3.15;;;;;;;15.10;46.00;98876.80;1684723;83;21729;-80
2023/11/29 00:44:09;;;;;;;9.00;3.37;;;;;;;15.13;46.03;98881.00;1685730;85;21861;-81
2023/11/29 00:47:17;;;;;;;15.32;3.20;;;;;;;15.27;45.72;98878.28;1685278;85;21327;-81
2023/11/29 00:50:23;;;;;;;8.45;2.62;;;;;;;15.14;46.03;98870.27;1690513;85;21328;-80
2023/11/29 00:53:28;;;;;;;15.15;3.58;;;;;;;15.41;45.52;98868.68;1684489;85;21326;-81
2023/11/29 00:56:34;;;;;;;10.08;2.87;;;;;;;15.19;45.99;98865.70;1689726;84;22248;-80
2023/11/29 00:59:41;;;;;;;8.60;3.47;;;;;;;15.23;46.10;98864.69;1685704;85;21293;-80
2023/11/29 01:02:47;;;;;;;13.40;3.60;;;;;;;15.10;46.72;98869.91;1689255;85;21311;-81
2023/11/29 01:05:54;;;;;;;13.32;3.35;;;;;;;14.95;47.49;98856.63;1685294;85;21880;-83
2023/11/29 01:08:52;;;;;;;15.05;3.65;;;;;;;15.12;47.65;98845.73;1690447;85;21319;-84
2023/11/29 01:11:58;;;;;;;13.28;3.40;;;;;;;15.33;47.00;98850.59;1684573;85;21315;-82
2023/11/29 01:15:04;;;;;;;15.68;3.92;;;;;;;15.47;47.12;98838.77;1690554;82;21311;-82
2023/11/29 01:18:10;;;;;;;27.82;5.35;;;;;;;15.58;47.00;98839.30;1684590;85;21311;-81
2023/11/29 01:21:21;;;;;;;19.25;3.83;;;;;;;15.21;47.83;98844.29;1690610;85;21300;-81
2023/11/29 01:24:21;;;;;;;16.80;3.90;;;;;;;15.11;48.25;98818.45;1685684;85;21299;-83
2023/11/29 01:27:30;;;;;;;16.93;3.75;;;;;;;15.11;49.02;98824.80;1689902;85;21625;-81
2023/11/29 01:30:36;;;;;;;19.45;4.40;;;;;;;14.73;49.58;98839.89;1685639;85;21299;-81
2023/11/29 01:33:41;;;;;;;22.10;4.42;;;;;;;14.86;49.59;98815.94;1689539;85;21845;-83
2023/11/29 01:36:51;;;;;;;19.10;4.00;;;;;;;14.92;49.54;98817.21;1690576;85;21307;-82
2023/11/29 01:39:56;;;;;;;27.17;5.05;;;;;;;14.85;49.71;98801.34;1690496;85;21292;-83
2023/11/29 01:43:01;;;;;;;20.27;5.05;;;;;;;14.91;50.20;98811.38;1689241;85;21887;-82
2023/11/29 01:46:08;;;;;;;14.80;4.65;;;;;;;14.47;50.98;98807.30;1689301;85;21299;-81
2023/11/29 01:49:15;;;;;;;12.55;3.90;;;;;;;14.75;50.60;98808.00;1690533;85;21856;-81
2023/11/29 01:52:21;;;;;;;17.48;4.45;;;;;;;14.53;51.23;98792.06;1690120;85;21895;-82
2023/11/29 01:55:27;;;;;;;23.70;4.50;;;;;;;14.45;51.55;98798.45;1690328;85;21845;-82
2023/11/29 01:58:33;;;;;;;22.73;4.55;;;;;;;14.50;51.64;98769.72;1711939;83;21361;-83
2023/11/29 02:01:40;;;;;;;15.03;6.03;;;;;;;14.16;52.59;98780.94;1710545;84;21939;-82
2023/11/29 02:04:45;;;;;;;20.17;4.50;;;;;;;14.08;52.99;98762.06;1693955;85;21301;-81
2023/11/29 02:07:51;;;;;;;17.82;4.45;;;;;;;14.06;53.42;98769.98;1693160;85;21333;-84
2023/11/29 02:10:56;;;;;;;16.27;4.65;;;;;;;14.05;53.53;98758.70;1693829;85;21291;-81
2023/11/29 02:14:03;;;;;;;19.80;4.53;;;;;;;14.35;52.66;98763.30;1693043;85;21265;-81
2023/11/29 02:17:09;;;;;;;12.10;4.45;;;;;;;14.31;53.04;98756.59;1693485;85;21923;-84
2023/11/29 02:20:15;;;;;;;25.25;6.37;;;;;;;14.48;52.53;98730.05;1693977;85;21306;-82
2023/11/29 02:23:34;;;;;;;17.73;4.37;;;;;;;14.15;53.56;98740.78;1692778;85;21361;-83
2023/11/29 02:26:39;;;;;;;17.85;4.97;;;;;;;14.36;53.12;98726.45;1693560;85;21366;-81
2023/11/29 02:29:45;;;;;;;19.70;4.50;;;;;;;14.33;53.31;98706.30;1693906;85;21247;-81
2023/11/29 02:32:51;;;;;;;17.75;4.55;;;;;;;14.28;53.84;98704.80;1692649;85;21350;-84
2023/11/29 02:35:58;;;;;;;13.08;4.37;;;;;;;14.27;54.08;98694.89;1693973;85;21298;-81
2023/11/29 02:39:04;;;;;;;18.95;5.10;;;;;;;14.37;54.05;98693.74;1693944;85;21295;-82
2023/11/29 02:42:09;;;;;;;30.00;8.83;;;;;;;14.31;54.31;98685.08;1693698;85;21326;-84
2023/11/29 02:45:17;;;;;;;18.87;5.45;;;;;;;14.23;54.60;98666.19;1693824;85;21298;-81
2023/11/29 02:48:22;;;;;;;18.40;4.55;;;;;;;14.40;54.58;98664.93;1692631;85;21331;-81
2023/11/29 02:51:29;;;;;;;21.40;4.80;;;;;;;14.32;54.73;98642.75;1693797;85;21224;-81
2023/11/29 02:54:37;;;;;;;14.50;4.20;;;;;;;14.34;54.73;98632.33;1693047;85;21310;-83
2023/11/29 02:57:43;;;;;;;22.10;5.33;;;;;;;14.33;55.08;98633.41;1693413;85;21295;-81
2023/11/29 03:00:49;;;;;;;18.87;5.70;;;;;;;14.31;55.06;98616.33;1686970;85;21307;-83
2023/11/29 03:03:55;;;;;;;18.37;4.75;;;;;;;14.66;54.26;98604.42;1662316;85;21924;-83
2023/11/29 03:07:00;;;;;;;20.62;5.22;;;;;;;14.74;54.02;98605.42;1687206;82;21350;-84
2023/11/29 03:09:59;;;;;;;21.80;5.75;;;;;;;14.82;53.85;98600.92;1687312;85;21371;-81
2023/11/29 03:13:05;;;;;;;20.57;5.97;;;;;;;14.80;53.85;98582.42;1688087;85;21354;-82
2023/11/29 03:16:12;;;;;;;22.22;5.40;;;;;;;14.63;54.37;98582.34;1687188;85;21856;-82
2023/11/29 03:19:18;;;;;;;19.45;5.20;;;;;;;14.58;54.72;98583.63;1688622;84;21298;-82
2023/11/29 03:22:23;;;;;;;16.45;5.80;;;;;;;14.66;54.45;98561.23;1682649;85;21231;-81
2023/11/29 03:25:30;;;;;;;20.35;4.97;;;;;;;14.88;54.04;98551.75;1687621;85;21374;-80
2023/11/29 03:28:36;;;;;;;18.35;5.62;;;;;;;14.97;53.63;98562.66;1687822;85;21282;-82
2023/11/29 03:31:42;;;;;;;18.00;4.92;;;;;;;15.06;53.34;98567.23;1687406;85;21350;-81
2023/11/29 03:34:48;;;;;;;13.65;4.85;;;;;;;15.21;52.77;98560.61;1687332;85;21318;-82
2023/11/29 03:37:54;;;;;;;15.60;4.28;;;;;;;15.19;52.85;98537.14;1687500;85;21334;-81
2023/11/29 03:41:01;;;;;;;15.45;4.47;;;;;;;15.05;52.94;98538.83;1688618;85;21880;-81
2023/11/29 03:44:08;;;;;;;16.82;5.00;;;;;;;14.85;53.28;98527.47;1687858;85;21353;-81
2023/11/29 03:47:15;;;;;;;22.25;5.08;;;;;;;14.71;53.89;98546.73;1688233;85;21318;-82
2023/11/29 03:50:21;;;;;;;15.35;4.87;;;;;;;14.69;54.18;98518.64;1688607;85;21310;-81
2023/11/29 03:53:27;;;;;;;16.48;4.15;;;;;;;14.71;54.23;98531.06;1687445;85;21318;-81
2023/11/29 03:56:32;;;;;;;14.63;5.03;;;;;;;14.73;54.38;98519.83;1688662;85;21832;-81
2023/11/29 03:59:38;;;;;;;13.22;5.42;;;;;;;14.56;54.65;98512.34;1685722;84;21382;-82
2023/11/29 04:02:43;;;;;;;16.00;4.70;;;;;;;14.67;54.39;98508.41;1658724;86;21337;-82
2023/11/29 04:05:50;;;;;;;21.02;4.45;;;;;;;14.78;54.11;98500.66;1658429;86;21890;-84
2023/11/29 04:08:55;;;;;;;17.10;4.08;;;;;;;14.80;54.16;98508.11;1659465;86;21866;-81
2023/11/29 04:11:54;;;;;;;12.65;4.05;;;;;;;14.87;54.15;98493.66;1659208;86;21915;-82
2023/11/29 04:14:47;;;;;;;11.43;4.37;;;;;;;14.85;54.15;98487.55;1658577;86;21369;-84
2023/11/29 04:17:34;;;;;;;13.05;4.85;;;;;;;15.12;53.66;98473.98;1655373;86;21335;-81
2023/11/29 04:20:27;;;;;;;15.93;4.70;;;;;;;15.25;53.40;98486.59;1659256;86;21291;-83
2023/11/29 04:23:13;;;;;;;15.70;4.75;;;;;;;14.86;54.61;98453.98;1655688;86;21338;-82
2023/11/29 04:26:05;;;;;;;11.03;4.25;;;;;;;14.66;55.25;98457.22;1658453;86;21322;-84
2023/11/29 04:28:52;;;;;;;12.50;4.10;;;;;;;15.00;54.82;98458.91;1659204;86;21892;-83
2023/11/29 04:31:46;;;;;;;19.20;4.70;;;;;;;15.04;54.75;98462.83;1658035;86;22033;-83
2023/11/29 04:34:51;;;;;;;26.33;4.45;;;;;;;15.38;54.12;98455.09;1659246;86;21334;-83
2023/11/29 04:37:58;;;;;;;14.10;4.33;;;;;;;15.29;54.16;98441.77;1658539;86;21318;-84
2023/11/29 04:41:04;;;;;;;16.62;4.05;;;;;;;15.27;54.43;98434.83;1659380;86;21290;-83
2023/11/29 04:44:10;;;;;;;19.73;4.80;;;;;;;15.27;54.23;98396.27;1659343;86;21326;-81
2023/11/29 04:47:18;;;;;;;15.13;4.78;;;;;;;15.40;54.21;98411.61;1658335;86;21317;-83
2023/11/29 04:50:24;;;;;;;22.30;5.28;;;;;;;15.34;54.19;98403.83;1658169;85;21302;-80
2023/11/29 04:53:31;;;;;;;17.65;4.33;;;;;;;15.48;54.00;98394.63;1658208;86;21864;-83
2023/11/29 04:56:37;;;;;;;15.53;4.47;;;;;;;15.18;54.80;98412.94;1658466;86;21327;-81
2023/11/29 04:59:43;;;;;;;21.73;4.85;;;;;;;15.41;54.07;98399.50;1659174;86;21377;-82
2023/11/29 05:02:50;;;;;;;20.23;3.92;;;;;;;15.52;53.83;98368.23;1655649;84;21358;-83
2023/11/29 05:05:57;;;;;;;18.55;4.67;;;;;;;15.27;54.84;98404.53;1689315;85;21343;-82
2023/11/29 05:09:06;;;;;;;16.48;4.78;;;;;;;15.40;54.52;98350.46;1690651;85;21296;-83
2023/11/29 05:12:13;;;;;;;17.75;6.20;;;;;;;15.39;54.73;98340.54;1690195;85;21872;-83
2023/11/29 05:15:19;;;;;;;16.70;4.92;;;;;;;15.28;54.94;98336.80;1690074;85;21889;-83
2023/11/29 05:18:26;;;;;;;18.55;4.47;;;;;;;15.21;54.95;98331.20;1673031;85;21323;-84
2023/11/29 05:21:33;;;;;;;12.30;4.90;;;;;;;15.24;55.21;98339.80;1690420;85;21295;-84
2023/11/29 05:24:42;;;;;;;13.83;5.15;;;;;;;15.49;54.56;98329.65;1690499;85;21295;-84
2023/11/29 05:27:49;;;;;;;15.95;4.25;;;;;;;15.36;55.01;98345.17;1689640;85;21323;-84
2023/11/29 05:30:56;;;;;;;19.02;5.00;;;;;;;15.35;55.08;98350.40;1689921;85;21366;-85
2023/11/29 05:34:03;;;;;;;15.95;4.03;;;;;;;15.35;55.23;98313.21;1680526;85;21697;-84
2023/11/29 05:37:09;;;;;;;16.52;4.67;;;;;;;15.34;55.22;98309.63;1689205;85;21833;-84
2023/11/29 05:40:20;;;;;;;21.35;4.97;;;;;;;15.47;55.06;98312.52;1690514;85;21279;-84
2023/11/29 05:43:25;;;;;;;15.45;4.25;;;;;;;15.41;55.18;98305.84;1689227;85;21900;-85
2023/11/29 05:46:32;;;;;;;14.05;4.25;;;;;;;15.40;54.91;98296.75;1689503;80;21892;-84
2023/11/29 05:49:39;;;;;;;14.78;3.98;;;;;;;15.42;54.87;98302.81;1689785;85;21331;-85
2023/11/29 05:52:47;;;;;;;21.57;4.65;;;;;;;15.24;55.47;98327.41;1688836;85;21371;-84
2023/11/29 05:55:53;;;;;;;16.32;4.55;;;;;;;15.33;55.45;98302.97;1690166;85;21323;-84
2023/11/29 05:59:00;;;;;;;19.00;4.30;;;;;;;15.16;55.67;98268.63;1690226;83;21307;-85
2023/11/29 06:02:07;;;;;;;8.70;4.00;;;;;;;15.38;55.40;98265.02;1684235;83;21378;-85
2023/11/29 06:05:16;;;;;;;19.48;4.50;;;;;;;15.43;55.11;98249.93;1713614;82;21325;-84
2023/11/29 06:08:22;;;;;;;18.55;4.55;;;;;;;15.77;53.89;98272.14;1729443;82;21868;-84
2023/11/29 06:11:28;;;;;;;15.38;4.20;;;;;;;15.73;54.01;98261.89;1740093;81;21326;-84
2023/11/29 06:14:35;;;;;;;8.90;3.52;;;;;;;15.58;54.23;98260.59;1739627;82;21330;-85
2023/11/29 06:17:47;;;;;;;15.15;3.77;;;;;;;15.46;54.80;98248.87;1729582;82;21842;-85
2023/11/29 06:20:54;;;;;;;11.10;3.65;;;;;;;15.44;54.84;98235.92;1722238;82;21301;-83
2023/11/29 06:24:00;;;;;;;8.45;3.30;;;;;;;15.74;55.21;98244.25;1708016;82;21322;-84
2023/11/29 06:27:07;;;;;;;13.85;4.40;;;;;;;15.58;54.72;98204.11;1707681;82;21378;-84
2023/11/29 06:30:16;;;;;;;8.88;3.35;;;;;;;15.60;54.74;98210.19;1681760;84;21299;-85
2023/11/29 06:33:23;;;;;;;11.50;4.12;;;;;;;15.72;54.27;98218.34;1702997;82;21812;-84
2023/11/29 06:36:32;;;;;;;9.65;3.02;;;;;;;15.53;54.96;98193.04;1714888;81;21307;-85
2023/11/29 06:39:38;;;;;;;8.58;3.87;;;;;;;15.70;54.62;98210.03;1718671;82;21295;-84
2023/11/29 06:42:49;;;;;;;11.80;3.85;;;;;;;15.75;54.38;98192.16;1682666;82;21310;-83
2023/11/29 06:45:55;;;;;;;;;;;;;;;15.63;54.43;98202.51;1709796;82;21844;-84
2023/11/29 06:49:02;;;;;;;11.03;3.80;;;;;;;15.57;54.70;98204.35;1707206;82;20256;-83
2023/11/29 06:52:08;;;;;;;13.40;4.35;;;;;;;15.76;54.47;98217.25;1687941;82;22249;-84
2023/11/29 06:55:16;;;;;;;9.65;2.85;;;;;;;15.56;54.72;98200.77;1714414;82;21311;-83
2023/11/29 06:58:25;;;;;;;12.43;3.02;;;;;;;15.68;54.23;98201.20;1707800;81;21860;-84
2023/11/29 07:01:32;;;;;;;7.65;3.02;;;;;;;15.82;54.15;98206.03;1706165;82;21338;-84
2023/11/29 07:04:39;;;;;;;9.85;3.10;;;;;;;15.83;53.79;98186.19;1685409;82;21293;-85
2023/11/29 07:07:49;;;;;;;9.28;3.17;;;;;;;15.94;53.79;98197.58;1710932;82;21832;-84
2023/11/29 07:10:59;;;;;;;9.83;2.98;;;;;;;16.02;53.58;98205.38;1711149;82;21889;-83
2023/11/29 07:14:06;;;;;;;14.63;3.10;;;;;;;16.10;53.15;98211.80;1712537;82;21338;-85
2023/11/29 07:17:14;;;;;;;5.20;2.80;;;;;;;16.33;52.68;98203.70;1706602;82;21913;-84
2023/11/29 07:20:21;;;;;;;10.82;2.65;;;;;;;16.22;52.84;98208.02;1707402;84;21726;-83
2023/11/29 07:23:32;;;;;;;12.75;4.20;;;;;;;15.95;53.41;98199.27;1687576;85;21318;-84
2023/11/29 07:26:39;;;;;;;8.13;2.83;;;;;;;16.48;52.23;98193.88;1685452;83;21335;-84
2023/11/29 07:29:46;;;;;;;7.35;2.65;;;;;;;16.41;52.51;98203.73;1682282;84;21323;-83
2023/11/29 07:32:53;;;;;;;6.05;2.37;;;;;;;16.74;51.59;98186.59;1690349;82;21311;-83
2023/11/29 07:35:54;;;;;;;14.03;2.30;;;;;;;16.75;51.71;98188.25;1663731;85;21350;-84
2023/11/29 07:38:49;;;;;;;5.78;2.33;;;;;;;16.66;51.83;98178.81;1683263;85;21308;-85
2023/11/29 07:41:58;;;;;;;5.92;2.30;;;;;;;16.52;52.28;98184.80;1658148;83;21282;-83
2023/11/29 07:45:06;;;;;;;7.25;2.60;;;;;;;16.80;51.76;98169.80;1708878;82;21226;-83
2023/11/29 07:48:14;;;;;;;3.92;2.00;;;;;;;16.72;51.97;98173.63;1705168;82;21287;-83
2023/11/29 07:51:27;;;;;;;4.08;2.10;;;;;;;16.75;51.67;98169.78;1709684;82;21306;-84
2023/11/29 07:54:35;;;;;;;4.87;1.92;;;;;;;16.89;51.30;98172.89;1645174;85;21287;-84
2023/11/29 07:57:50;;;;;;;6.60;2.20;;;;;;;17.38;50.51;98158.69;1688575;83;21407;-83
2023/11/29 08:00:58;;;;;;;5.15;1.90;;;;;;;17.09;51.05;98150.87;1661766;83;21312;-83
2023/11/29 08:04:12;;;;;;;5.72;2.42;;;;;;;16.96;51.05;98152.75;1678409;84;21935;-84
2023/11/29 08:07:18;;;;;;;3.35;1.60;;;;;;;16.99;51.04;98132.88;1701559;82;21809;-83
2023/11/29 08:10:27;;;;;;;10.25;3.00;;;;;;;16.90;51.14;98130.36;1668088;84;22163;-83
2023/11/29 08:13:34;;;;;;;4.28;1.70;;;;;;;17.01;51.02;98121.00;1657193;86;21342;-83
2023/11/29 08:16:35;;;;;;;6.90;1.80;;;;;;;16.85;51.36;98117.38;1707143;82;21394;-84
2023/11/29 08:20:05;;;;;;;5.45;1.90;;;;;;;16.88;50.95;98107.70;1694116;83;21294;-84
2023/11/29 08:23:11;;;;;;;3.10;1.70;;;;;;;16.75;51.49;98086.11;1694784;83;21299;-83
2023/11/29 08:26:18;;;;;;;5.00;1.80;;;;;;;16.68;51.71;98084.13;1679208;84;21319;-83
2023/11/29 08:29:25;;;;;;;7.60;1.77;;;;;;;16.92;51.55;98081.77;1693680;83;21285;-82
2023/11/29 08:32:33;;;;;;;2.87;1.30;;;;;;;17.15;50.87;98076.30;1689604;83;22288;-83
2023/11/29 08:35:43;;;;;;;1.20;1.07;;;;;;;16.66;51.89;98058.20;1704187;83;21303;-83
2023/11/29 08:38:51;;;;;;;5.03;1.90;;;;;;;16.69;51.96;98056.25;1692785;83;21364;-83
2023/11/29 08:41:58;;;;;;;2.77;1.30;;;;;;;16.32;53.08;98042.02;1689667;85;21311;-82
2023/11/29 08:45:04;;;;;;;3.02;1.12;;;;;;;16.40;53.22;98043.45;1691943;83;21299;-83
2023/11/29 08:48:15;;;;;;;2.52;0.90;;;;;;;16.97;52.16;98034.28;1703268;83;21315;-83
2023/11/29 08:51:25;;;;;;;1.77;1.10;;;;;;;16.55;52.89;98045.44;1657825;86;21267;-81
2023/11/29 08:54:33;;;;;;;1.65;1.00;;;;;;;16.45;53.42;98021.39;1681953;83;21362;-82
2023/11/29 08:57:41;;;;;;;0.98;0.70;;;;;;;16.70;53.15;98028.09;1680283;83;22232;-82
2023/11/29 09:00:50;;;;;;;2.35;0.93;;;;;;;16.76;53.22;98033.97;1691237;83;21358;-82
2023/11/29 09:03:56;;;;;;;1.12;0.98;;;;;;;16.75;53.49;98036.42;1679512;85;21287;-82
2023/11/29 09:07:04;;;;;;;1.22;0.60;;;;;;;16.86;53.56;98042.27;1684095;83;21310;-82
2023/11/29 09:47:50;;;;;;;11.83;4.10;;;;;;;19.05;52.86;98026.70;1704044;82;21713;-83
2023/11/29 09:50:58;;;;;;;6.25;2.72;;;;;;;19.23;52.44;98032.14;1706142;84;21799;-83
2023/11/29 09:54:03;;;;;;;6.78;2.70;;;;;;;19.00;52.68;98021.20;1704818;82;21327;-83
2023/11/29 09:57:12;;;;;;;10.60;3.08;;;;;;;19.01;52.92;98027.04;1704526;83;21860;-82
2023/11/29 10:00:17;;;;;;;8.70;2.65;;;;;;;19.06;52.87;98017.30;1683909;84;21319;-82
2023/11/29 10:03:25;;;;;;;7.15;2.47;;;;;;;19.31;52.58;98030.70;1692185;83;21366;-84
2023/11/29 10:06:32;;;;;;;11.03;2.58;;;;;;;19.53;52.08;98035.81;1684228;84;21311;-83
2023/11/29 10:09:40;;;;;;;5.12;2.33;;;;;;;19.43;52.32;98046.40;1663077;84;21298;-83
2023/11/29 10:12:47;;;;;;;7.37;3.50;;;;;;;19.43;52.38;98046.40;1685353;83;21697;-84
2023/11/29 10:15:58;;;;;;;6.22;2.67;;;;;;;19.26;52.87;98055.69;1719789;83;21318;-84
2023/11/29 10:19:04;;;;;;;8.25;3.47;;;;;;;19.29;52.89;98051.80;1687612;83;21270;-82
2023/11/29 10:22:11;;;;;;;6.65;2.70;;;;;;;19.27;52.96;98056.78;1686753;85;21267;-80
2023/11/29 10:25:25;;;;;;;2.83;1.87;;;;;;;19.28;53.10;98060.38;1688469;83;21270;-80
2023/11/29 10:28:32;;;;;;;10.38;3.27;;;;;;;19.37;52.90;98056.70;1666951;83;21271;-81
2023/11/29 10:31:39;;;;;;;12.65;3.05;;;;;;;19.43;52.84;98063.59;1669403;84;21299;-84
2023/11/29 10:34:45;;;;;;;11.00;2.90;;;;;;;19.28;53.06;98068.69;1673696;84;21873;-81
2023/11/29 10:38:03;;;;;;;6.33;2.15;;;;;;;19.23;53.33;98071.50;1683823;84;21901;-84
2023/11/29 10:41:08;;;;;;;10.28;2.40;;;;;;;19.31;53.09;98073.11;1669093;84;21314;-85
2023/11/29 10:44:14;;;;;;;9.78;2.67;;;;;;;19.33;53.04;98079.73;1659974;86;21268;-82
2023/11/29 10:47:34;;;;;;;10.72;2.77;;;;;;;19.56;52.48;98080.97;1627698;87;21833;-83
2023/11/29 10:50:41;;;;;;;10.90;3.30;;;;;;;19.57;52.52;98089.02;1662693;86;21306;-81
2023/11/29 10:53:49;;;;;;;13.08;2.83;;;;;;;19.34;52.96;98085.58;1664578;84;21284;-81
2023/11/29 10:56:54;;;;;;;12.63;3.40;;;;;;;19.14;53.62;98102.57;1669183;84;21949;-84
2023/11/29 11:00:13;;;;;;;12.33;2.98;;;;;;;19.21;53.44;98111.97;1663534;84;21252;-84
2023/11/29 11:03:18;;;;;;;11.95;3.80;;;;;;;19.10;53.62;98116.75;1665136;84;21315;-85
2023/11/29 11:06:39;;;;;;;14.10;3.95;;;;;;;19.00;53.90;98133.39;1687639;83;21288;-84
2023/11/29 11:09:51;;;;;;;9.63;3.70;;;;;;;18.89;53.61;98129.02;1704771;82;21335;-82
2023/11/29 11:13:02;;;;;;;8.80;3.42;;;;;;;18.90;53.32;98139.81;1706427;82;21350;-83
2023/11/29 11:16:07;;;;;;;8.30;3.65;;;;;;;19.02;53.31;98145.04;1703912;84;21275;-83
2023/11/29 11:19:13;;;;;;;15.28;3.90;;;;;;;18.87;53.29;98141.78;1705758;82;21268;-82
2023/11/29 11:22:32;;;;;;;11.68;3.58;;;;;;;19.08;52.54;98152.20;1703288;83;21847;-81
2023/11/29 11:25:37;;;;;;;9.65;4.25;;;;;;;18.76;53.25;98157.31;1705752;82;21271;-82
2023/11/29 11:28:44;;;;;;;5.60;3.35;;;;;;;19.00;52.43;98168.59;1706331;82;21288;-82
2023/11/29 11:31:51;;;;;;;5.08;3.42;;;;;;;19.23;51.96;98174.86;1707526;82;21314;-84
2023/11/29 11:34:56;;;;;;;8.30;4.72;;;;;;;19.50;51.11;98191.08;1708914;82;21299;-83
2023/11/29 11:38:06;;;;;;;5.90;3.85;;;;;;;19.47;51.08;98194.97;1705331;82;21726;-83
2023/11/29 11:41:12;;;;;;;;;;;;;;;18.65;50.90;98201.63;1721634;82;21346;-82
2023/11/29 11:44:17;;;;;;;7.72;4.00;;;;;;;18.67;50.98;98216.55;1702614;82;20292;-82
2023/11/29 11:47:23;;;;;;;11.25;5.05;;;;;;;18.92;51.00;98222.65;1703164;82;21311;-82
2023/11/29 11:50:30;;;;;;;8.60;4.75;;;;;;;18.95;50.77;98233.14;1708121;82;21905;-83
2023/11/29 11:53:37;;;;;;;6.58;5.03;;;;;;;18.76;50.86;98238.45;1705514;84;21836;-83
2023/11/29 11:56:43;;;;;;;11.08;5.87;;;;;;;18.82;50.41;98247.57;1704201;82;21283;-83
2023/11/29 11:59:48;;;;;;;7.97;5.50;;;;;;;18.89;49.87;98259.20;1704778;82;21272;-82
2023/11/29 12:02:55;;;;;;;9.83;6.10;;;;;;;18.72;50.04;98276.67;1702494;82;21288;-81
2023/11/29 12:06:02;;;;;;;10.20;6.62;;;;;;;18.30;50.56;98284.14;1687137;85;21295;-83
2023/11/29 12:09:11;;;;;;;14.05;7.70;;;;;;;18.24;50.48;98296.84;1684137;84;21710;-83
2023/11/29 12:12:20;;;;;;;15.93;8.40;;;;;;;18.38;49.98;98296.58;1685617;83;21320;-82
2023/11/29 12:15:26;;;;;;;16.45;8.95;;;;;;;18.28;49.92;98311.80;1682290;83;21331;-80
2023/11/29 12:18:32;;;;;;;17.75;9.85;;;;;;;18.26;50.07;98334.78;1702074;82;21284;-82
2023/11/29 12:21:40;;;;;;;14.63;8.10;;;;;;;18.10;50.03;98329.75;1697705;83;21320;-81
2023/11/29 12:24:53;;;;;;;10.85;7.37;;;;;;;17.85;50.06;98333.28;1703115;84;21359;-83
2023/11/29 12:27:58;;;;;;;9.45;6.92;;;;;;;17.96;49.70;98344.64;1703700;82;21330;-82
2023/11/29 12:31:07;;;;;;;8.05;5.42;;;;;;;17.49;50.52;98362.66;1704829;82;21962;-81
2023/11/29 12:34:13;;;;;;;7.30;5.05;;;;;;;17.57;50.08;98367.14;1702343;84;21936;-81
2023/11/29 12:37:23;;;;;;;5.70;4.55;;;;;;;17.33;50.46;98382.48;1701216;82;21839;-81
2023/11/29 12:40:30;;;;;;;7.58;5.10;;;;;;;17.59;49.84;98384.83;1710842;82;21284;-80
2023/11/29 12:43:38;;;;;;;9.35;4.50;;;;;;;17.81;49.67;98398.52;1706175;82;21307;-80
2023/11/29 12:46:45;;;;;;;5.60;4.12;;;;;;;17.83;49.39;98401.84;1704802;82;21300;-83
2023/11/29 12:49:51;;;;;;;5.20;3.52;;;;;;;17.61;49.71;98418.03;1704502;82;21303;-80
2023/11/29 12:52:58;;;;;;;4.12;3.62;;;;;;;17.73;49.31;98428.03;1700707;84;21906;-81
2023/11/29 12:56:04;;;;;;;6.00;3.90;;;;;;;17.57;49.62;98434.86;1702047;84;21323;-81
2023/11/29 12:59:10;;;;;;;5.80;4.25;;;;;;;17.52;49.64;98447.27;1701885;84;21857;-80
2023/11/29 13:02:16;;;;;;;7.97;3.62;;;;;;;17.43;49.80;98470.15;1700851;82;21869;-80
2023/11/29 13:05:22;;;;;;;4.92;3.45;;;;;;;17.74;48.96;98480.34;1708824;82;21901;-80
2023/11/29 13:08:28;;;;;;;3.65;2.98;;;;;;;17.57;48.63;98494.84;1698891;84;21272;-81
2023/11/29 13:11:34;;;;;;;3.17;2.87;;;;;;;17.56;48.49;98500.93;1704257;82;21299;-80
2023/11/29 13:14:41;;;;;;;4.33;2.90;;;;;;;17.35;48.21;98504.63;1701536;84;21277;-81
2023/11/29 13:17:47;;;;;;;4.35;3.30;;;;;;;17.33;48.24;98513.73;1705624;82;21283;-81
2023/11/29 13:20:53;;;;;;;4.08;2.83;;;;;;;17.32;48.01;98518.98;1703221;84;21319;-81
2023/11/29 13:23:59;;;;;;;3.90;3.50;;;;;;;17.20;48.30;98520.53;1702907;84;21268;-82
2023/11/29 13:27:07;;;;;;;4.10;3.42;;;;;;;16.84;49.03;98535.91;1708715;82;21308;-82
2023/11/29 13:30:15;;;;;;;3.55;3.25;;;;;;;16.67;49.56;98553.09;1710041;84;21292;-81
2023/11/29 13:33:22;;;;;;;6.42;3.25;;;;;;;16.94;49.10;98553.13;1721287;82;21318;-81
2023/11/29 13:36:31;;;;;;;5.62;4.35;;;;;;;16.93;49.03;98561.97;1706733;84;21272;-81
2023/11/29 13:39:38;;;;;;;5.78;4.70;;;;;;;16.99;48.92;98567.85;1706399;84;21288;-81
2023/11/29 13:42:44;;;;;;;5.62;4.95;;;;;;;16.99;49.03;98581.66;1714760;82;21876;-81
2023/11/29 13:45:49;;;;;;;4.25;3.83;;;;;;;16.64;49.78;98593.08;1708958;84;21295;-82
2023/11/29 13:48:57;;;;;;;4.37;3.83;;;;;;;16.68;49.22;98604.45;1710133;84;21303;-82
2023/11/29 13:52:04;;;;;;;5.17;3.95;;;;;;;16.50;49.50;98614.70;1709145;84;21736;-82
2023/11/29 13:55:12;;;;;;;4.08;3.65;;;;;;;16.39;49.21;98617.05;1723927;82;21291;-81
2023/11/29 13:58:17;;;;;;;5.42;3.37;;;;;;;16.28;49.27;98634.56;1724095;82;21375;-81
2023/11/29 14:01:24;;;;;;;5.30;4.05;;;;;;;16.27;49.00;98638.39;1737864;81;21950;-82
2023/11/29 14:04:30;;;;;;;3.60;3.25;;;;;;;15.92;50.08;98642.83;1738055;82;21844;-82
2023/11/29 14:07:36;;;;;;;4.85;4.30;;;;;;;15.96;49.88;98646.77;1736995;81;21347;-81
2023/11/29 14:10:44;;;;;;;4.87;4.22;;;;;;;15.76;50.27;98658.27;1701922;84;21382;-82
2023/11/29 14:13:52;;;;;;;6.10;5.25;;;;;;;16.03;49.89;98666.72;1725760;82;21307;-82
2023/11/29 14:16:58;;;;;;;7.50;5.40;;;;;;;16.14;49.80;98676.84;1735283;81;21335;-82
2023/11/29 14:20:08;;;;;;;7.20;5.72;;;;;;;16.20;49.48;98687.40;1736434;82;21292;-81
2023/11/29 14:23:13;;;;;;;10.28;7.10;;;;;;;16.09;49.79;98684.48;1735516;81;21359;-82
2023/11/29 14:26:19;;;;;;;8.90;7.08;;;;;;;15.92;49.90;98696.05;1736797;81;21310;-81
2023/11/29 14:29:24;;;;;;;10.05;7.22;;;;;;;15.76;49.76;98704.61;1737624;82;21308;-82
2023/11/29 14:32:30;;;;;;;7.50;6.37;;;;;;;15.92;49.45;98709.84;1737698;81;21326;-81
2023/11/29 14:35:35;;;;;;;11.20;6.30;;;;;;;15.73;49.57;98704.27;1738252;82;21299;-81
2023/11/29 14:38:42;;;;;;;10.90;8.00;;;;;;;15.63;49.29;98717.30;1738285;82;21328;-81
2023/11/29 14:41:47;;;;;;;8.98;6.83;;;;;;;15.41;49.39;98722.66;1738358;81;21299;-81
2023/11/29 14:44:53;;;;;;;12.28;8.43;;;;;;;15.28;49.30;98735.34;1738473;82;21260;-82
2023/11/29 14:47:59;;;;;;;9.93;7.72;;;;;;;15.24;49.21;98736.39;1731159;81;21354;-81
2023/11/29 14:51:06;;;;;;;9.75;8.25;;;;;;;15.10;49.12;98752.88;1710840;84;21284;-81
2023/11/29 14:54:13;;;;;;;10.90;8.75;;;;;;;15.05;49.13;98767.37;1710095;84;21339;-83
2023/11/29 14:57:21;;;;;;;16.48;7.92;;;;;;;14.93;49.19;98791.35;1709536;84;21323;-81
2023/11/29 15:00:27;;;;;;;8.60;7.30;;;;;;;14.70;49.49;98805.96;1709639;84;21267;-81
2023/11/29 15:03:32;;;;;;;12.13;7.90;;;;;;;15.08;48.63;98819.21;1709603;84;21896;-80
2023/11/29 15:06:38;;;;;;;11.22;8.65;;;;;;;15.04;48.35;98831.78;1710945;84;21881;-82
2023/11/29 15:09:44;;;;;;;11.00;8.35;;;;;;;15.19;48.06;98837.33;1710631;84;21323;-83